This is the latest recevied weather packets stored in our database for station/object N1YZ. If no packets are shown the sender has not sent any weather packets the latest 10 day(s).
| Time | Temp. | Humidity | Pressure | Rain* | Wind** | Luminosity | Snow |
|---|---|---|---|---|---|---|---|
| 1778009883 | 23.89° C | 64% | 1032.6 hPa | 0 mm | - | 320 W/m² | - |
| 1778009582 | 23.33° C | 64% | 1032.6 hPa | 0 mm | - | 132 W/m² | - |
| 1778009279 | 23.89° C | 62% | 1032.8 hPa | 0 mm | - | 206 W/m² | - |
| 1778008977 | 24.44° C | 62% | 1032.6 hPa | 0 mm | - | 173 W/m² | - |
| 1778008675 | 23.33° C | 63% | 1032.6 hPa | 0 mm | - | 595 W/m² | - |
| 1778008373 | 23.33° C | 61% | 1033 hPa | 0 mm | - | 148 W/m² | - |
| 1778008069 | 23.89° C | 63% | 1033.1 hPa | 0 mm | - | 783 W/m² | - |
| 1778007764 | 23.89° C | 58% | 1033.1 hPa | 0 mm | - | 246 W/m² | - |
| 1778007460 | 25° C | 58% | 1033.1 hPa | 0 mm | - | 259 W/m² | - |
| 1778007157 | 24.44° C | 63% | 1033.4 hPa | 0 mm | - | 673 W/m² | - |
| 1778006853 | 23.89° C | 60% | 1033.3 hPa | 0 mm | - | 143 W/m² | - |
| 1778006551 | 23.33° C | 63% | 1033.4 hPa | 0 mm | - | 719 W/m² | - |
| 1778006248 | 23.33° C | 64% | 1033.4 hPa | 0 mm | - | 611 W/m² | - |
| 1778005945 | 23.33° C | 61% | 1033.4 hPa | 0 mm | - | 117 W/m² | - |
| 1778005641 | 24.44° C | 63% | 1033.4 hPa | 0 mm | - | 665 W/m² | - |
| 1778005338 | 23.89° C | 61% | 1033.7 hPa | 0 mm | - | 162 W/m² | - |
| 1778005034 | 22.78° C | 63% | 1033.5 hPa | 0 mm | - | 740 W/m² | - |
| 1778004732 | 22.78° C | 64% | 1033.7 hPa | 0 mm | - | 557 W/m² | - |
| 1778004429 | 23.33° C | 66% | 1033.8 hPa | 0 mm | - | 163 W/m² | - |
| 1778004125 | 23.33° C | 62% | 1033.7 hPa | 0 mm | - | 295 W/m² | - |
| 1778003821 | 22.78° C | 65% | 1033.6 hPa | 0 mm | - | 423 W/m² | - |
| 1778003518 | 22.78° C | 66% | 1033.7 hPa | 0 mm | - | 522 W/m² | - |
| 1778003214 | 22.78° C | 66% | 1033.8 hPa | 0 mm | - | 412 W/m² | - |
| 1778002910 | 22.22° C | 66% | 1034.2 hPa | 0 mm | - | 366 W/m² | - |
| 1778002606 | 22.22° C | 64% | 1034.1 hPa | 0 mm | - | 287 W/m² | - |
* Rain latest hour (hover to see other rain measurements)
** Current wind speed in m/s (hover to see current wind gust speed)